Time;durP1;ratioP1;P1;durP2;ratioP2;P2;SDS_P1;SDS_P2;PMS_P1;PMS_P2;Temp;Humidity;BMP_temperature;BMP_pressure;BME280_temperature;BME280_humidity;BME280_pressure;Samples;Min_cycle;Max_cycle;Signal;HPM_P1;HPM_P2
2021/04/05 00:01:32;;;;;;;17.13;10.95;;;;;;;-2.72;75.35;95880.25;5075826;28;20032;-94
2021/04/05 00:03:58;;;;;;;15.95;10.50;;;;;;;-2.40;75.11;95928.06;5076019;28;20028;-95
2021/04/05 00:06:23;;;;;;;17.45;11.27;;;;;;;-3.03;74.82;95820.69;5076295;28;20440;-94
2021/04/05 00:08:49;;;;;;;15.57;10.43;;;;;;;-2.66;75.62;95881.41;5076048;28;20031;-93
2021/04/05 00:11:16;;;;;;;19.10;11.15;;;;;;;-2.78;73.80;95879.88;5075792;28;20099;-93
2021/04/05 00:13:43;;;;;;;22.88;12.27;;;;;;;-2.83;75.25;95877.59;5076066;28;20032;-94
2021/04/05 00:16:11;;;;;;;18.73;12.57;;;;;;;-2.92;75.36;95870.03;5075610;28;20028;-95
2021/04/05 00:18:36;;;;;;;19.73;12.48;;;;;;;-2.92;75.71;95869.28;5075790;28;20021;-94
2021/04/05 00:21:07;;;;;;;20.17;11.90;;;;;;;-2.85;74.55;95845.34;5075536;28;20035;-94
2021/04/05 00:23:33;;;;;;;19.58;11.98;;;;;;;-3.13;73.09;95818.81;5075800;28;20116;-94
2021/04/05 00:25:58;;;;;;;20.02;11.50;;;;;;;-3.06;73.52;95845.34;5075524;28;20520;-95
2021/04/05 00:28:24;;;;;;;18.08;11.50;;;;;;;-2.87;75.16;95863.59;5075654;28;20024;-94
2021/04/05 00:30:49;;;;;;;15.15;11.30;;;;;;;-3.12;75.13;95828.28;5075622;28;20017;-94
2021/04/05 00:33:15;;;;;;;19.83;11.27;;;;;;;-3.06;74.81;95850.69;5078267;28;20059;-94
2021/04/05 00:35:42;;;;;;;18.15;11.32;;;;;;;-3.05;74.84;95858.25;5080170;28;20444;-94
2021/04/05 00:38:09;;;;;;;16.83;10.68;;;;;;;-3.16;75.17;95852.94;5079162;28;20032;-94
2021/04/05 00:40:53;;;;;;;17.20;11.57;;;;;;;-3.02;74.59;95868.13;5079072;28;20052;-93
2021/04/05 00:43:19;;;;;;;15.35;10.63;;;;;;;-2.75;76.01;95899.66;5079105;28;20024;-93
2021/04/05 00:45:46;;;;;;;15.10;10.88;;;;;;;-2.75;75.86;95889.78;5078760;28;20024;-93
2021/04/05 00:48:13;;;;;;;15.80;11.57;;;;;;;-2.75;75.92;95892.44;5063939;28;20094;-93
2021/04/05 00:50:53;;;;;;;15.00;10.65;;;;;;;-3.61;75.20;95772.13;5058932;28;20025;-93
2021/04/05 00:53:22;;;;;;;14.13;10.35;;;;;;;-3.27;75.27;95830.94;5083176;28;20127;-93
2021/04/05 00:55:48;;;;;;;15.85;10.40;;;;;;;-3.25;77.02;95826.03;5099114;28;20084;-94
2021/04/05 00:58:15;;;;;;;15.90;10.55;;;;;;;-2.83;76.83;95882.16;5099102;28;20028;-94
2021/04/05 01:00:45;;;;;;;15.50;10.35;;;;;;;-3.21;75.45;95813.47;5098707;28;20328;-94
2021/04/05 01:03:15;;;;;;;17.20;10.95;;;;;;;-2.80;74.94;95881.41;5098938;28;20051;-94
2021/04/05 01:05:41;;;;;;;14.73;9.73;;;;;;;-3.26;76.34;95808.53;5099285;28;20122;-94
2021/04/05 01:08:11;;;;;;;14.25;9.43;;;;;;;-2.75;76.78;95868.50;5099116;28;20030;-94
2021/04/05 01:10:37;;;;;;;14.60;10.63;;;;;;;-3.21;75.71;95812.72;5098855;28;20020;-94
2021/04/05 01:13:06;;;;;;;14.90;10.68;;;;;;;-3.03;75.61;95856.00;5098737;28;20032;-94
2021/04/05 01:15:32;;;;;;;14.57;10.52;;;;;;;-3.58;76.51;95766.03;5098765;28;20016;-94
2021/04/05 01:17:57;;;;;;;12.55;9.77;;;;;;;-3.81;75.07;95745.19;5098709;28;20027;-94
2021/04/05 01:20:23;;;;;;;15.80;11.10;;;;;;;-3.61;76.32;95764.16;5098653;28;20063;-94
2021/04/05 01:22:51;;;;;;;16.92;11.57;;;;;;;-3.07;77.21;95838.53;5098868;28;20487;-95
2021/04/05 01:25:18;;;;;;;15.70;10.90;;;;;;;-3.70;77.01;95753.91;5098579;28;20024;-94
2021/04/05 01:27:45;;;;;;;20.67;12.15;;;;;;;-3.20;77.05;95836.25;5098571;28;20056;-94
2021/04/05 01:30:31;;;;;;;15.68;11.40;;;;;;;-3.28;76.93;95828.66;5098556;28;20024;-94
2021/04/05 01:33:10;;;;;;;15.13;11.32;;;;;;;-3.17;77.41;95837.41;5098492;28;20056;-93
2021/04/05 01:35:47;;;;;;;17.30;11.68;;;;;;;-2.92;77.08;95832.81;5098384;28;20028;-94
2021/04/05 01:38:14;;;;;;;14.95;11.18;;;;;;;-3.54;75.81;95766.06;5098612;28;20028;-93
2021/04/05 01:40:47;;;;;;;19.10;12.02;;;;;;;-3.75;76.95;95721.69;5098186;28;20056;-94
2021/04/05 01:43:12;;;;;;;14.85;10.60;;;;;;;-3.26;76.03;95759.97;5097844;28;20316;-94
2021/04/05 01:45:39;;;;;;;16.75;11.55;;;;;;;-3.29;75.21;95777.44;5097705;28;20030;-95
2021/04/05 01:48:05;;;;;;;16.65;10.85;;;;;;;-3.85;75.89;95712.56;5098105;28;20107;-94
2021/04/05 01:50:30;;;;;;;17.50;11.20;;;;;;;-3.18;75.70;95806.66;5098404;28;20128;-94
2021/04/05 01:52:56;;;;;;;15.88;11.40;;;;;;;-3.64;77.37;95727.75;5098014;28;20104;-94
2021/04/05 01:55:22;;;;;;;14.90;11.23;;;;;;;-3.13;75.20;95800.19;5098130;28;20043;-94
2021/04/05 01:57:49;;;;;;;15.23;10.88;;;;;;;-3.77;76.52;95716.00;5098011;28;20027;-94
2021/04/05 02:00:22;;;;;;;17.35;11.45;;;;;;;-3.15;76.77;95800.56;5098033;28;20021;-93
2021/04/05 02:02:47;;;;;;;17.98;11.82;;;;;;;-3.63;76.78;95717.88;5098312;28;20048;-93
2021/04/05 02:05:15;;;;;;;18.50;12.23;;;;;;;-3.33;77.87;95763.41;5097869;28;20125;-93
2021/04/05 02:07:40;;;;;;;19.27;12.32;;;;;;;-3.65;77.25;95705.00;5097806;28;20024;-92
2021/04/05 02:10:12;;;;;;;19.42;12.45;;;;;;;-3.50;77.08;95711.06;5097754;28;20423;-94
2021/04/05 02:12:38;;;;;;;21.25;13.45;;;;;;;-2.80;76.86;95793.69;5097633;28;20024;-93
2021/04/05 02:15:09;;;;;;;20.30;13.32;;;;;;;-3.13;75.03;95779.69;5097562;28;20041;-94
2021/04/05 02:17:35;;;;;;;19.30;13.43;;;;;;;-3.51;76.21;95736.84;5097531;28;20028;-94
2021/04/05 02:20:01;;;;;;;22.73;14.00;;;;;;;-3.91;75.89;95674.28;5097169;28;20028;-93
2021/04/05 02:22:26;;;;;;;19.55;13.35;;;;;;;-3.53;76.77;95731.16;5097108;28;20055;-94
2021/04/05 02:24:52;;;;;;;21.73;13.63;;;;;;;-3.45;76.34;95761.13;5097290;28;20151;-94
2021/04/05 02:27:17;;;;;;;19.02;13.18;;;;;;;-3.72;76.26;95711.06;5097329;28;20027;-94
2021/04/05 02:29:43;;;;;;;22.45;13.48;;;;;;;-3.71;77.56;95704.63;5097294;28;20419;-94
2021/04/05 02:32:09;;;;;;;19.95;13.45;;;;;;;-4.31;76.59;95632.97;5097271;28;20023;-94
2021/04/05 02:34:34;;;;;;;16.73;13.55;;;;;;;-3.92;77.03;95675.44;5097332;28;20053;-92
2021/04/05 02:37:00;;;;;;;19.17;13.48;;;;;;;-4.12;76.68;95664.41;5097188;28;20020;-94
2021/04/05 02:39:25;;;;;;;19.42;14.15;;;;;;;-3.90;77.06;95706.88;5096776;28;20024;-93
2021/04/05 02:41:52;;;;;;;24.85;14.90;;;;;;;-3.40;77.97;95762.66;5096985;28;20051;-94
2021/04/05 02:44:19;;;;;;;20.92;14.25;;;;;;;-4.11;77.78;95662.53;5097102;28;20030;-94
2021/04/05 02:46:47;;;;;;;23.58;13.75;;;;;;;-3.90;79.16;95667.06;5096939;28;20111;-93
2021/04/05 02:49:14;;;;;;;22.45;12.85;;;;;;;-3.28;78.55;95770.22;5097059;28;20301;-94
2021/04/05 02:51:45;;;;;;;22.92;12.65;;;;;;;-3.36;77.35;95755.41;5096711;28;20024;-94
2021/04/05 02:54:11;;;;;;;21.83;12.75;;;;;;;-3.36;77.95;95742.13;5096808;28;20040;-94
2021/04/05 02:56:38;;;;;;;19.63;13.05;;;;;;;-3.64;77.39;95716.38;5096658;28;20054;-94
2021/04/05 02:59:04;;;;;;;20.88;12.77;;;;;;;-4.05;77.73;95676.91;5096770;28;20081;-93
2021/04/05 03:01:31;;;;;;;20.23;13.23;;;;;;;-3.92;77.68;95661.41;5096662;28;20032;-93
2021/04/05 03:03:58;;;;;;;24.70;13.38;;;;;;;-3.50;77.62;95717.13;5096842;28;20357;-94
2021/04/05 03:06:26;;;;;;;21.15;13.48;;;;;;;-4.44;77.05;95576.88;5096611;28;20059;-94
2021/04/05 03:08:53;;;;;;;23.38;13.60;;;;;;;-3.28;77.91;95722.41;5096300;28;20028;-93
2021/04/05 03:11:21;;;;;;;21.02;13.40;;;;;;;-4.20;77.24;95575.38;5096627;28;20103;-94
2021/04/05 03:13:47;;;;;;;25.02;13.68;;;;;;;-3.56;77.38;95665.53;5096626;28;20316;-94
2021/04/05 03:16:32;;;;;;;20.55;13.05;;;;;;;-3.52;76.49;95719.38;5096572;28;20319;-93
2021/04/05 03:19:01;;;;;;;24.05;13.70;;;;;;;-3.51;77.76;95714.84;5096205;28;20028;-92
2021/04/05 03:21:28;;;;;;;23.00;13.98;;;;;;;-3.98;77.39;95653.81;5096482;28;20024;-93
2021/04/05 03:23:59;;;;;;;21.35;13.00;;;;;;;-3.99;78.28;95656.88;5097086;28;20028;-94
2021/04/05 03:26:25;;;;;;;20.52;13.43;;;;;;;-3.87;78.53;95640.53;5097169;28;20404;-93
2021/04/05 03:28:50;;;;;;;22.80;13.32;;;;;;;-3.98;78.44;95600.00;5096508;28;20073;-94
2021/04/05 03:31:18;;;;;;;19.35;13.90;;;;;;;-3.25;78.71;95692.41;5096419;28;20399;-94
2021/04/05 03:33:52;;;;;;;17.95;13.15;;;;;;;-3.34;76.33;95711.41;5096460;28;20024;-94
2021/04/05 03:36:33;;;;;;;20.77;13.23;;;;;;;-3.43;77.53;95697.75;5096418;28;20062;-93
2021/04/05 03:38:59;;;;;;;22.58;13.60;;;;;;;-3.34;76.42;95700.78;5096432;28;20127;-94
2021/04/05 03:41:34;;;;;;;22.23;13.70;;;;;;;-3.41;77.27;95690.16;5096336;28;20103;-94
2021/04/05 03:44:29;;;;;;;26.25;13.73;;;;;;;-3.96;77.50;95630.31;5096505;28;20028;-94
2021/04/05 03:47:02;;;;;;;20.35;13.95;;;;;;;-3.79;77.90;95663.28;5096444;28;20028;-93
2021/04/05 03:49:46;;;;;;;22.90;13.95;;;;;;;-3.60;78.19;95698.53;5098061;28;20035;-93
2021/04/05 03:52:20;;;;;;;20.95;13.82;;;;;;;-3.57;78.47;95682.63;5096079;28;20056;-94
2021/04/05 03:54:48;;;;;;;18.27;13.68;;;;;;;-4.16;77.11;95610.59;5096018;28;20028;-94
2021/04/05 03:57:18;;;;;;;22.30;13.80;;;;;;;-4.15;79.12;95619.34;5096286;28;20020;-93
2021/04/05 03:59:48;;;;;;;21.90;14.05;;;;;;;-4.48;78.70;95568.91;5092227;28;20092;-94
2021/04/05 04:02:31;;;;;;;22.27;13.15;;;;;;;-3.90;78.02;95641.28;5096197;28;20024;-94
2021/04/05 04:07:37;;;;;;;23.52;15.00;;;;;;;-3.66;78.96;95682.25;5098888;28;20027;-94
2021/04/05 04:10:07;;;;;;;27.42;14.50;;;;;;;-4.15;78.05;95611.38;5100005;28;20026;-94
2021/04/05 04:12:35;;;;;;;25.40;14.32;;;;;;;-4.33;79.04;95584.84;5099956;28;20477;-93
2021/04/05 04:15:01;;;;;;;25.83;15.77;;;;;;;-4.38;78.02;95583.31;5099818;28;20081;-93
2021/04/05 04:17:30;;;;;;;23.00;14.60;;;;;;;-4.34;77.93;95575.38;5099826;28;20024;-94
2021/04/05 04:19:56;;;;;;;23.42;14.82;;;;;;;-4.16;78.89;95594.69;5099575;28;20327;-94
2021/04/05 04:22:22;;;;;;;21.10;15.40;;;;;;;-4.11;77.72;95591.66;5099607;28;20404;-94
2021/04/05 04:24:48;;;;;;;20.42;14.80;;;;;;;-4.41;78.44;95546.22;5116719;28;20028;-93
2021/04/05 04:27:15;;;;;;;21.75;14.63;;;;;;;-3.76;77.04;95656.47;5099641;28;20043;-94
2021/04/05 04:29:41;;;;;;;22.05;15.48;;;;;;;-3.88;78.58;95619.69;5099668;28;20024;-94
2021/04/05 04:32:07;;;;;;;22.70;14.90;;;;;;;-4.37;78.00;95545.06;5099256;28;20023;-94
2021/04/05 04:34:34;;;;;;;25.20;15.23;;;;;;;-4.20;77.23;95582.59;5099617;28;20050;-93
2021/04/05 04:37:02;;;;;;;25.58;14.93;;;;;;;-3.74;77.92;95649.63;5100455;28;20539;-94
2021/04/05 04:39:28;;;;;;;26.92;15.85;;;;;;;-3.67;78.19;95648.09;5099395;28;20080;-93
2021/04/05 04:41:53;;;;;;;25.60;15.48;;;;;;;-4.14;78.26;95589.03;5099418;28;20028;-93
2021/04/05 04:44:18;;;;;;;23.13;15.35;;;;;;;-4.31;78.70;95556.06;5099573;28;20068;-95
2021/04/05 04:46:44;;;;;;;22.45;15.45;;;;;;;-4.34;78.03;95556.81;5099279;28;20435;-93
2021/04/05 04:49:12;;;;;;;25.98;15.27;;;;;;;-3.60;77.59;95635.56;5099323;28;20549;-94
2021/04/05 04:51:39;;;;;;;24.33;15.25;;;;;;;-3.53;78.45;95632.91;5099195;28;20020;-93
2021/04/05 04:54:06;;;;;;;23.13;15.77;;;;;;;-4.06;77.47;95551.47;5098944;28;20051;-94
2021/04/05 04:56:32;;;;;;;23.80;14.43;;;;;;;-3.66;77.44;95623.09;5099307;28;20032;-94
2021/04/05 04:59:03;;;;;;;23.88;15.88;;;;;;;-4.11;77.90;95551.09;5100709;28;20035;-93
2021/04/05 05:01:31;;;;;;;24.45;15.60;;;;;;;-3.88;77.65;95562.06;5099598;28;20020;-94
2021/04/05 05:03:59;;;;;;;24.20;15.40;;;;;;;-3.99;77.87;95550.72;5079033;28;20036;-95
2021/04/05 05:06:26;;;;;;;22.23;15.32;;;;;;;-3.87;79.23;95554.88;5078777;28;20035;-94
2021/04/05 05:08:52;;;;;;;24.27;16.15;;;;;;;-4.12;79.65;95485.94;5078613;28;20033;-94
2021/04/05 05:11:18;;;;;;;27.00;16.67;;;;;;;-3.79;77.90;95538.53;5078808;28;20073;-94
2021/04/05 05:13:43;;;;;;;30.13;19.63;;;;;;;-3.84;78.72;95527.53;5095434;28;20116;-95
2021/04/05 05:16:10;;;;;;;35.25;22.95;;;;;;;-3.82;79.18;95504.81;5078501;28;20115;-94
2021/04/05 05:18:36;;;;;;;34.58;21.02;;;;;;;-3.32;77.41;95575.56;5077300;28;20082;-94
2021/04/05 05:21:04;;;;;;;34.05;20.55;;;;;;;-3.32;79.13;95584.28;5078396;28;20136;-94
2021/04/05 05:23:32;;;;;;;32.50;20.50;;;;;;;-3.30;78.25;95579.34;5078794;28;20031;-94
2021/04/05 05:25:59;;;;;;;31.83;21.00;;;;;;;-3.22;79.00;95580.06;5078718;28;20038;-95
2021/04/05 05:28:25;;;;;;;29.98;19.98;;;;;;;-3.34;77.80;95554.69;5078493;28;20023;-94
2021/04/05 05:30:52;;;;;;;30.88;20.10;;;;;;;-3.45;78.36;95525.53;5084999;28;20016;-94
2021/04/05 05:33:20;;;;;;;27.80;19.85;;;;;;;-3.46;77.89;95510.75;5098358;28;20315;-93
2021/04/05 05:35:47;;;;;;;27.50;19.10;;;;;;;-3.47;78.30;95497.81;5098601;28;20037;-94
2021/04/05 05:38:13;;;;;;;27.30;18.98;;;;;;;-3.32;78.49;95507.25;5098299;28;20086;-91
2021/04/05 05:40:40;;;;;;;27.42;18.10;;;;;;;-3.27;78.70;95493.56;5098196;28;20035;-92
2021/04/05 05:43:37;;;;;;;25.98;18.27;;;;;;;-2.80;78.68;95546.44;5097886;28;20020;-92
2021/04/05 05:46:12;;;;;;;25.10;17.50;;;;;;;-2.68;78.48;95549.38;5098175;28;20039;-92
2021/04/05 05:49:02;;;;;;;21.92;16.73;;;;;;;-2.57;78.21;95549.31;5098175;28;20024;-91
2021/04/05 05:51:42;;;;;;;22.70;15.77;;;;;;;-3.08;77.54;95443.75;5098219;28;20062;-95
2021/04/05 05:54:23;;;;;;;22.40;16.45;;;;;;;-3.07;77.16;95430.06;5097994;28;20347;-93
2021/04/05 05:57:03;;;;;;;23.10;16.20;;;;;;;-2.34;77.33;95526.72;5103962;28;20109;-94
2021/04/05 05:59:44;;;;;;;25.27;17.73;;;;;;;-2.15;78.55;95536.81;5096510;28;20024;-94
2021/04/05 06:02:18;;;;;;;28.13;17.60;;;;;;;-2.07;77.45;95532.22;5097801;28;20032;-93
2021/04/05 06:05:01;;;;;;;26.77;18.45;;;;;;;-2.17;78.04;95493.91;5098266;28;20028;-93
2021/04/05 06:07:54;;;;;;;26.05;20.60;;;;;;;-2.02;77.23;95521.88;5099962;28;20020;-93
2021/04/05 06:10:59;;;;;;;26.77;18.40;;;;;;;-1.96;76.71;95499.00;5093304;28;20328;-93
2021/04/05 06:13:34;;;;;;;24.38;17.83;;;;;;;-2.09;78.70;95459.97;5000560;28;20299;-93
2021/04/05 06:16:18;;;;;;;31.55;18.85;;;;;;;-1.62;76.92;95506.25;5085905;28;20094;-92
2021/04/05 06:18:52;;;;;;;30.48;19.00;;;;;;;-1.61;76.72;95500.50;5081303;28;20688;-94
2021/04/05 06:21:39;;;;;;;22.92;17.70;;;;;;;-1.46;77.13;95497.69;5092554;28;20039;-93
2021/04/05 06:24:15;;;;;;;26.77;18.45;;;;;;;-1.75;77.26;95434.13;5096949;28;20036;-93
2021/04/05 06:26:46;;;;;;;22.27;17.25;;;;;;;-1.13;75.18;95488.88;5092576;28;20028;-93
2021/04/05 06:29:48;;;;;;;26.33;17.40;;;;;;;-1.02;75.05;95490.63;5100853;28;20047;-93
2021/04/05 06:32:19;;;;;;;23.42;15.95;;;;;;;-0.89;74.81;95494.28;5092346;28;20020;-94
2021/04/05 06:35:22;;;;;;;24.27;16.15;;;;;;;-0.94;74.05;95492.06;5089252;28;20319;-93
2021/04/05 06:38:01;;;;;;;25.33;17.33;;;;;;;-1.04;72.96;95460.97;5089323;28;20028;-93
2021/04/05 06:40:30;;;;;;;23.65;17.02;;;;;;;-0.79;74.42;95485.38;5084935;28;20033;-92
2021/04/05 06:43:14;;;;;;;22.95;17.02;;;;;;;-0.72;74.92;95485.25;5097852;28;20038;-93
2021/04/05 06:45:56;;;;;;;27.00;17.70;;;;;;;-1.11;73.60;95416.50;5108865;27;20093;-92
2021/04/05 06:48:52;;;;;;;23.15;17.15;;;;;;;-0.62;72.89;95473.66;5090119;28;20023;-92
2021/04/05 06:51:59;;;;;;;24.45;16.15;;;;;;;-0.41;71.74;95471.81;5091268;28;20024;-93
2021/04/05 06:54:47;;;;;;;22.25;16.55;;;;;;;-0.38;73.37;95463.72;5078227;28;20335;-92
2021/04/05 06:57:32;;;;;;;23.30;16.95;;;;;;;-0.65;72.27;95418.44;5087469;28;20037;-92
2021/04/05 07:00:08;;;;;;;22.40;16.85;;;;;;;-0.55;71.93;95406.09;5095034;28;20402;-92
2021/04/05 07:02:46;;;;;;;22.17;16.00;;;;;;;-0.10;70.89;95448.41;5087611;28;20419;-93
2021/04/05 07:05:33;;;;;;;20.30;15.18;;;;;;;-0.02;71.27;95450.50;5093166;28;20032;-92
2021/04/05 07:08:24;;;;;;;20.02;15.45;;;;;;;0.03;71.86;95449.28;5096760;28;20027;-92
2021/04/05 07:11:11;;;;;;;19.08;14.60;;;;;;;0.26;71.10;95443.88;5088029;28;20442;-91
2021/04/05 07:14:28;;;;;;;19.75;15.05;;;;;;;0.30;69.82;95445.72;5092957;28;20031;-90
2021/04/05 07:17:10;;;;;;;20.08;15.77;;;;;;;0.43;70.02;95443.94;5018990;28;20080;-92
2021/04/05 07:19:47;;;;;;;19.80;15.10;;;;;;;0.56;70.13;95441.38;5079447;28;20036;-92
2021/04/05 07:22:50;;;;;;;18.63;15.43;;;;;;;0.66;71.80;95435.81;5102036;28;20097;-90
2021/04/05 07:25:34;;;;;;;20.02;14.95;;;;;;;0.51;70.96;95397.19;5096037;28;20327;-91
2021/04/05 07:28:08;;;;;;;24.52;14.00;;;;;;;0.90;70.56;95424.97;5100807;28;20024;-90
2021/04/05 07:30:46;;;;;;;21.23;14.43;;;;;;;0.64;70.48;95367.88;5092187;28;20020;-91
2021/04/05 07:33:33;;;;;;;17.42;13.80;;;;;;;1.15;69.52;95413.72;5095769;28;20091;-90
2021/04/05 07:36:06;;;;;;;19.95;13.68;;;;;;;1.24;68.95;95414.66;5079710;28;20027;-91
2021/04/05 07:38:43;;;;;;;17.83;13.80;;;;;;;0.94;69.06;95348.13;5098789;28;20166;-90
2021/04/05 07:41:51;;;;;;;19.55;14.05;;;;;;;1.49;70.02;95406.03;5103685;28;20036;-90
2021/04/05 07:44:31;;;;;;;19.75;12.40;;;;;;;1.49;66.50;95398.00;5112477;28;20024;-92
2021/04/05 07:47:18;;;;;;;18.77;13.75;;;;;;;1.64;68.61;95386.91;5100503;28;20032;-92
2021/04/05 07:50:03;;;;;;;17.80;14.13;;;;;;;1.78;67.70;95384.63;5100074;28;20027;-93
2021/04/05 07:52:47;;;;;;;19.30;13.23;;;;;;;1.84;68.33;95371.47;5095835;28;20073;-92
2021/04/05 07:55:14;;;;;;;17.50;12.27;;;;;;;1.61;66.81;95331.53;5096407;28;20490;-89
2021/04/05 07:58:05;;;;;;;17.13;12.93;;;;;;;1.94;66.67;95358.97;5097843;28;20036;-89
2021/04/05 08:01:05;;;;;;;16.73;12.95;;;;;;;2.23;68.74;95358.91;5089546;28;20026;-89
2021/04/05 08:03:58;;;;;;;14.73;12.02;;;;;;;2.26;66.34;95364.16;5113257;28;20020;-89
2021/04/05 08:06:31;;;;;;;15.82;11.88;;;;;;;2.09;64.71;95304.56;5094014;28;20025;-91
2021/04/05 08:09:04;;;;;;;14.95;11.50;;;;;;;2.26;64.04;95310.56;5090690;28;20039;-91
2021/04/05 08:11:48;;;;;;;17.65;12.45;;;;;;;2.61;64.30;95348.97;5094892;28;20053;-90
2021/04/05 08:14:20;;;;;;;15.95;12.65;;;;;;;2.56;64.86;95308.56;5099788;28;20020;-90
2021/04/05 08:16:59;;;;;;;20.88;12.85;;;;;;;2.99;65.50;95342.09;5101336;28;20031;-91
2021/04/05 08:19:40;;;;;;;16.77;12.18;;;;;;;2.79;63.89;95296.72;5091117;28;20024;-90
2021/04/05 08:22:24;;;;;;;16.58;12.30;;;;;;;3.17;64.52;95320.78;5091222;28;20035;-93
2021/04/05 08:25:03;;;;;;;14.60;11.05;;;;;;;3.28;63.98;95325.81;5102004;28;20028;-92
2021/04/05 08:27:53;;;;;;;16.90;11.23;;;;;;;3.44;63.03;95320.28;5095201;28;20324;-92
2021/04/05 08:30:33;;;;;;;16.50;11.13;;;;;;;3.34;60.85;95276.50;5099496;28;20027;-91
2021/04/05 08:33:14;;;;;;;16.45;11.48;;;;;;;3.72;61.75;95310.50;5100358;28;20028;-90
2021/04/05 08:35:45;;;;;;;12.82;9.88;;;;;;;3.84;59.62;95298.94;5098424;28;20119;-92
2021/04/05 08:38:29;;;;;;;11.48;8.60;;;;;;;3.93;56.43;95295.56;5099387;28;20054;-89
2021/04/05 08:41:23;;;;;;;12.10;7.70;;;;;;;4.10;56.54;95285.34;5092657;28;20154;-90
2021/04/05 08:44:16;;;;;;;11.13;8.10;;;;;;;4.31;57.81;95273.03;5089363;28;20086;-94
2021/04/05 08:46:43;;;;;;;8.82;7.10;;;;;;;4.45;55.70;95262.50;5088359;28;20032;-91
2021/04/05 08:49:18;;;;;;;10.82;8.05;;;;;;;4.44;55.37;95233.38;5099008;28;20024;-91
2021/04/05 08:51:52;;;;;;;9.40;7.38;;;;;;;4.53;55.38;95200.34;5096840;28;20419;-89
2021/04/05 08:54:30;;;;;;;9.68;6.35;;;;;;;4.54;51.44;95186.50;5081265;28;20041;-89
2021/04/05 08:57:03;;;;;;;9.20;6.30;;;;;;;4.86;52.47;95192.50;5078665;28;20029;-91
2021/04/05 09:00:21;;;;;;;7.65;6.68;;;;;;;5.39;53.79;95229.91;5088916;28;20020;-90
2021/04/05 09:02:54;;;;;;;11.38;6.95;;;;;;;5.55;54.11;95232.28;5065583;28;20301;-91
2021/04/05 09:05:19;;;;;;;8.02;5.47;;;;;;;5.74;50.38;95222.94;5099203;28;20035;-92
2021/04/05 09:07:53;;;;;;;8.68;5.45;;;;;;;5.97;50.06;95221.59;5099032;28;20028;-90
2021/04/05 09:10:26;;;;;;;6.88;5.18;;;;;;;5.94;46.44;95167.84;5099991;28;20020;-88
2021/04/05 09:12:54;;;;;;;11.75;6.32;;;;;;;6.21;48.70;95181.19;5113064;28;20049;-87
2021/04/05 09:15:19;;;;;;;7.55;5.13;;;;;;;6.48;49.54;95193.06;5119068;28;20030;-86
2021/04/05 09:18:04;;;;;;;8.13;4.70;;;;;;;6.74;45.97;95196.78;5110890;28;20025;-89
2021/04/05 09:20:47;;;;;;;5.97;4.20;;;;;;;6.66;45.64;95151.72;5097031;28;20019;-87
2021/04/05 09:23:35;;;;;;;6.45;3.90;;;;;;;7.14;44.73;95178.66;5090391;28;20086;-87
2021/04/05 09:26:23;;;;;;;9.10;4.35;;;;;;;7.33;43.95;95169.94;5113546;28;20028;-88
2021/04/05 09:29:09;;;;;;;8.93;4.15;;;;;;;7.57;44.71;95159.06;5115554;28;20032;-89
2021/04/05 09:31:42;;;;;;;26.70;6.07;;;;;;;7.85;53.52;95162.22;5104407;28;20024;-90
2021/04/05 09:34:34;;;;;;;12.88;4.45;;;;;;;8.29;47.12;95144.41;5101362;28;20035;-90
2021/04/05 09:37:06;;;;;;;6.18;3.90;;;;;;;8.37;44.72;95137.44;5092418;28;20409;-88
2021/04/05 09:40:08;;;;;;;6.22;3.75;;;;;;;8.48;41.43;95129.44;5078990;28;20177;-88
2021/04/05 09:42:59;;;;;;;5.22;4.18;;;;;;;8.28;43.29;95088.81;5094898;28;20107;-88
2021/04/05 09:45:31;;;;;;;9.35;5.35;;;;;;;8.63;41.97;95110.44;5097999;28;20028;-88
2021/04/05 09:48:11;;;;;;;6.47;4.40;;;;;;;8.58;40.92;95100.31;5097143;28;20032;-88
2021/04/05 09:50:56;;;;;;;6.40;3.85;;;;;;;8.81;41.95;95104.00;5098397;28;20071;-89
2021/04/05 09:53:36;;;;;;;8.00;4.60;;;;;;;8.98;41.43;95096.06;5098505;28;20098;-89
2021/04/05 09:56:19;;;;;;;5.93;3.90;;;;;;;9.23;41.83;95094.59;5097852;28;20032;-87
2021/04/05 09:59:10;;;;;;;8.52;4.03;;;;;;;9.26;41.78;95085.47;5094674;28;20043;-87
2021/04/05 10:01:38;;;;;;;6.68;3.83;;;;;;;9.26;41.46;95077.34;5097843;28;20328;-88
2021/04/05 10:04:07;;;;;;;5.75;4.07;;;;;;;9.11;42.58;95055.81;5082012;28;20107;-88
2021/04/05 10:06:35;;;;;;;8.15;4.10;;;;;;;9.24;39.83;95085.22;5097241;28;20028;-89
2021/04/05 10:09:04;;;;;;;6.43;4.43;;;;;;;9.01;41.09;95047.09;5094490;28;20063;-88
2021/04/05 10:11:33;;;;;;;6.13;4.15;;;;;;;8.89;38.30;95040.84;5077286;28;20029;-88
2021/04/05 10:14:15;;;;;;;8.15;4.38;;;;;;;8.94;38.91;95036.69;5117264;28;20030;-88
2021/04/05 10:16:53;;;;;;;5.63;4.03;;;;;;;9.00;40.91;95034.78;5096574;28;20040;-88
2021/04/05 10:19:34;;;;;;;4.30;3.75;;;;;;;8.89;38.71;94994.81;5077265;28;20024;-88
2021/04/05 10:22:02;;;;;;;6.07;4.30;;;;;;;9.47;40.08;95056.34;5094806;28;20020;-89
2021/04/05 10:24:31;;;;;;;5.15;3.53;;;;;;;9.41;39.49;95023.78;5118637;28;20472;-89
2021/04/05 10:26:58;;;;;;;6.38;3.92;;;;;;;9.63;37.91;95044.88;5097198;28;20159;-88
2021/04/05 10:29:33;;;;;;;5.68;3.80;;;;;;;9.87;39.79;95056.16;5096860;28;20024;-88
2021/04/05 10:32:02;;;;;;;7.53;4.50;;;;;;;10.03;38.54;95052.06;5096932;28;20119;-88
2021/04/05 10:34:29;;;;;;;6.35;4.00;;;;;;;9.78;37.55;94985.84;5093962;28;20051;-89
2021/04/05 10:37:17;;;;;;;8.82;5.75;;;;;;;10.34;37.30;95036.97;5097092;28;20381;-88
2021/04/05 10:39:50;;;;;;;5.90;4.18;;;;;;;10.47;36.22;95026.38;5097467;28;20331;-88
2021/04/05 10:42:23;;;;;;;6.15;4.20;;;;;;;10.35;34.27;95035.72;5091059;28;20020;-88
2021/04/05 10:44:54;;;;;;;5.72;3.67;;;;;;;9.96;35.01;94982.00;5097086;28;20031;-88
2021/04/05 10:47:25;;;;;;;5.70;4.10;;;;;;;10.38;36.38;94994.75;5077747;28;20028;-88
2021/04/05 10:49:54;;;;;;;6.15;4.20;;;;;;;10.55;36.21;94972.38;5076679;28;20524;-89
2021/04/05 10:52:26;;;;;;;7.55;4.07;;;;;;;10.90;36.40;94988.22;5077328;28;20045;-89
2021/04/05 10:54:53;;;;;;;12.00;4.40;;;;;;;11.07;35.67;94980.81;5090714;28;20114;-88
2021/04/05 10:57:23;;;;;;;5.18;4.15;;;;;;;11.07;35.21;94953.66;5091733;28;20480;-88
2021/04/05 11:00:13;;;;;;;7.15;5.28;;;;;;;11.24;35.47;94961.84;5093410;28;20028;-88
2021/04/05 11:03:14;;;;;;;10.90;6.50;;;;;;;11.39;34.27;94970.44;5076469;28;20293;-88
2021/04/05 11:05:42;;;;;;;6.30;4.75;;;;;;;11.27;39.13;94936.38;5077438;28;20028;-91
2021/04/05 11:08:09;;;;;;;8.77;3.80;;;;;;;11.46;36.73;94933.88;5076496;28;20081;-92
2021/04/05 11:10:37;;;;;;;9.55;4.05;;;;;;;11.64;37.63;94919.75;5112274;28;20109;-89
2021/04/05 11:13:09;;;;;;;5.70;3.95;;;;;;;11.25;34.01;94920.56;5096764;28;20024;-93
2021/04/05 11:15:40;;;;;;;7.35;3.92;;;;;;;11.69;38.19;94923.69;5096606;28;20024;-91
2021/04/05 11:18:10;;;;;;;7.80;4.45;;;;;;;12.18;38.03;94924.78;5098200;28;20032;-92
2021/04/05 11:20:39;;;;;;;11.37;5.20;;;;;;;11.90;37.21;94854.16;5096505;28;20024;-88
2021/04/05 11:23:19;;;;;;;11.30;4.82;;;;;;;12.34;35.00;94939.53;5097754;28;20077;-91
2021/04/05 11:25:49;;;;;;;7.63;4.75;;;;;;;11.88;34.39;94893.97;5098282;28;20039;-90
2021/04/05 11:28:27;;;;;;;9.52;4.63;;;;;;;11.73;33.58;94877.94;5099399;28;20020;-88
2021/04/05 11:31:15;;;;;;;4.72;4.10;;;;;;;11.76;34.55;94925.88;5085810;28;20107;-88
2021/04/05 11:33:49;;;;;;;5.32;3.92;;;;;;;11.48;35.53;94907.66;5093983;28;20030;-89
2021/04/05 11:36:16;;;;;;;5.47;4.00;;;;;;;11.42;35.43;94862.72;5098306;28;20420;-87
2021/04/05 11:38:47;;;;;;;5.93;4.45;;;;;;;11.84;34.36;94880.66;5095973;28;20374;-87
2021/04/05 11:41:15;;;;;;;5.75;3.70;;;;;;;12.38;34.46;94909.34;5095936;28;20035;-87
2021/04/05 11:43:43;;;;;;;5.68;3.63;;;;;;;12.01;32.25;94859.53;5096187;28;20020;-87
2021/04/05 11:46:11;;;;;;;7.60;4.38;;;;;;;12.42;32.51;94882.59;5094039;28;20116;-89
2021/04/05 11:48:38;;;;;;;7.30;4.32;;;;;;;12.61;32.27;94879.97;5096708;28;20318;-88
2021/04/05 11:51:04;;;;;;;5.63;4.05;;;;;;;12.51;31.90;94836.72;5089188;28;20085;-87
2021/04/05 11:53:45;;;;;;;5.75;3.97;;;;;;;12.47;32.02;94843.69;5096492;28;20493;-88
2021/04/05 11:56:14;;;;;;;5.25;3.80;;;;;;;12.57;33.57;94870.13;5096070;28;20059;-88
2021/04/05 11:59:00;;;;;;;7.45;3.33;;;;;;;12.79;32.29;94860.31;5096217;28;20024;-88